sensor_id;sensor_type;location;lat;lon;timestamp;P1;durP1;ratioP1;P2;durP2;ratioP2
54599;SDS011;40500;51.084;16.958;2023-07-13T00:02:51;5.20;;;3.70;;
54599;SDS011;40500;51.084;16.958;2023-07-13T00:05:52;6.80;;;3.60;;
54599;SDS011;40500;51.084;16.958;2023-07-13T00:08:51;9.80;;;3.10;;
54599;SDS011;40500;51.084;16.958;2023-07-13T00:11:43;4.60;;;4.10;;
54599;SDS011;40500;51.084;16.958;2023-07-13T00:14:45;7.60;;;4.00;;
54599;SDS011;40500;51.084;16.958;2023-07-13T00:17:19;8.00;;;4.80;;
54599;SDS011;40500;51.084;16.958;2023-07-13T00:19:55;8.40;;;3.90;;
54599;SDS011;40500;51.084;16.958;2023-07-13T00:22:47;4.80;;;3.60;;
54599;SDS011;40500;51.084;16.958;2023-07-13T00:25:42;5.20;;;4.20;;
54599;SDS011;40500;51.084;16.958;2023-07-13T00:28:17;7.60;;;4.20;;
54599;SDS011;40500;51.084;16.958;2023-07-13T00:31:08;4.70;;;3.90;;
54599;SDS011;40500;51.084;16.958;2023-07-13T00:34:08;6.60;;;4.20;;
54599;SDS011;40500;51.084;16.958;2023-07-13T00:36:41;8.90;;;4.30;;
54599;SDS011;40500;51.084;16.958;2023-07-13T00:39:38;5.10;;;4.10;;
54599;SDS011;40500;51.084;16.958;2023-07-13T00:42:29;8.50;;;4.80;;
54599;SDS011;40500;51.084;16.958;2023-07-13T00:48:49;7.70;;;5.30;;
54599;SDS011;40500;51.084;16.958;2023-07-13T00:51:43;7.60;;;5.00;;
54599;SDS011;40500;51.084;16.958;2023-07-13T00:54:41;6.20;;;4.90;;
54599;SDS011;40500;51.084;16.958;2023-07-13T00:57:37;7.40;;;4.50;;
54599;SDS011;40500;51.084;16.958;2023-07-13T01:00:29;6.30;;;4.20;;
54599;SDS011;40500;51.084;16.958;2023-07-13T01:03:03;6.10;;;4.40;;
54599;SDS011;40500;51.084;16.958;2023-07-13T01:05:39;8.60;;;4.60;;
54599;SDS011;40500;51.084;16.958;2023-07-13T01:11:08;8.10;;;4.20;;
54599;SDS011;40500;51.084;16.958;2023-07-13T01:14:00;9.50;;;5.30;;
54599;SDS011;40500;51.084;16.958;2023-07-13T01:16:53;6.70;;;4.40;;
54599;SDS011;40500;51.084;16.958;2023-07-13T01:19:48;6.10;;;4.50;;
54599;SDS011;40500;51.084;16.958;2023-07-13T01:22:41;5.40;;;4.10;;
54599;SDS011;40500;51.084;16.958;2023-07-13T01:25:14;5.30;;;4.30;;
54599;SDS011;40500;51.084;16.958;2023-07-13T01:28:07;8.10;;;4.50;;
54599;SDS011;40500;51.084;16.958;2023-07-13T01:30:58;7.70;;;4.70;;
54599;SDS011;40500;51.084;16.958;2023-07-13T01:33:49;5.20;;;4.00;;
54599;SDS011;40500;51.084;16.958;2023-07-13T01:36:23;6.80;;;3.80;;
54599;SDS011;40500;51.084;16.958;2023-07-13T01:39:17;6.20;;;4.50;;
54599;SDS011;40500;51.084;16.958;2023-07-13T01:42:09;4.70;;;3.60;;
54599;SDS011;40500;51.084;16.958;2023-07-13T01:44:41;5.00;;;3.50;;
54599;SDS011;40500;51.084;16.958;2023-07-13T01:47:35;4.70;;;3.50;;
54599;SDS011;40500;51.084;16.958;2023-07-13T01:50:26;5.10;;;3.90;;
54599;SDS011;40500;51.084;16.958;2023-07-13T01:53:18;8.10;;;4.50;;
54599;SDS011;40500;51.084;16.958;2023-07-13T01:56:14;7.90;;;4.20;;
54599;SDS011;40500;51.084;16.958;2023-07-13T01:59:05;5.50;;;4.00;;
54599;SDS011;40500;51.084;16.958;2023-07-13T02:01:57;5.90;;;4.80;;
54599;SDS011;40500;51.084;16.958;2023-07-13T02:04:50;6.70;;;4.50;;
54599;SDS011;40500;51.084;16.958;2023-07-13T02:07:42;7.80;;;4.40;;
54599;SDS011;40500;51.084;16.958;2023-07-13T02:10:37;6.00;;;4.80;;
54599;SDS011;40500;51.084;16.958;2023-07-13T02:13:28;7.40;;;4.70;;
54599;SDS011;40500;51.084;16.958;2023-07-13T02:16:23;6.60;;;4.30;;
54599;SDS011;40500;51.084;16.958;2023-07-13T02:19:15;5.40;;;4.00;;
54599;SDS011;40500;51.084;16.958;2023-07-13T02:22:06;6.80;;;4.30;;
54599;SDS011;40500;51.084;16.958;2023-07-13T02:25:00;9.00;;;4.70;;
54599;SDS011;40500;51.084;16.958;2023-07-13T02:27:55;7.50;;;5.40;;
54599;SDS011;40500;51.084;16.958;2023-07-13T02:30:48;5.50;;;4.00;;
54599;SDS011;40500;51.084;16.958;2023-07-13T02:33:45;5.40;;;4.20;;
54599;SDS011;40500;51.084;16.958;2023-07-13T02:36:39;7.20;;;4.50;;
54599;SDS011;40500;51.084;16.958;2023-07-13T02:39:32;5.70;;;3.90;;
54599;SDS011;40500;51.084;16.958;2023-07-13T02:42:23;8.40;;;4.60;;
54599;SDS011;40500;51.084;16.958;2023-07-13T02:45:18;5.70;;;4.60;;
54599;SDS011;40500;51.084;16.958;2023-07-13T02:48:13;6.80;;;4.00;;
54599;SDS011;40500;51.084;16.958;2023-07-13T02:51:06;7.80;;;4.20;;
54599;SDS011;40500;51.084;16.958;2023-07-13T02:54:00;7.30;;;4.40;;
54599;SDS011;40500;51.084;16.958;2023-07-13T02:56:52;8.50;;;4.20;;
54599;SDS011;40500;51.084;16.958;2023-07-13T02:59:53;9.20;;;4.60;;
54599;SDS011;40500;51.084;16.958;2023-07-13T03:02:45;7.90;;;4.10;;
54599;SDS011;40500;51.084;16.958;2023-07-13T03:05:40;6.40;;;4.40;;
54599;SDS011;40500;51.084;16.958;2023-07-13T03:08:38;6.30;;;4.30;;
54599;SDS011;40500;51.084;16.958;2023-07-13T03:11:11;6.10;;;4.80;;
54599;SDS011;40500;51.084;16.958;2023-07-13T03:14:02;5.80;;;4.90;;
54599;SDS011;40500;51.084;16.958;2023-07-13T03:16:54;8.10;;;4.90;;
54599;SDS011;40500;51.084;16.958;2023-07-13T03:19:50;7.00;;;5.50;;
54599;SDS011;40500;51.084;16.958;2023-07-13T03:22:41;7.60;;;4.80;;
54599;SDS011;40500;51.084;16.958;2023-07-13T03:25:15;7.90;;;4.60;;
54599;SDS011;40500;51.084;16.958;2023-07-13T03:28:06;6.70;;;4.80;;
54599;SDS011;40500;51.084;16.958;2023-07-13T03:31:02;7.50;;;4.40;;
54599;SDS011;40500;51.084;16.958;2023-07-13T03:34:04;6.20;;;4.20;;
54599;SDS011;40500;51.084;16.958;2023-07-13T03:36:57;7.30;;;4.30;;
54599;SDS011;40500;51.084;16.958;2023-07-13T03:39:48;5.30;;;4.60;;
54599;SDS011;40500;51.084;16.958;2023-07-13T03:42:40;7.20;;;4.50;;
54599;SDS011;40500;51.084;16.958;2023-07-13T03:45:37;8.70;;;5.10;;
54599;SDS011;40500;51.084;16.958;2023-07-13T03:48:28;7.70;;;4.70;;
54599;SDS011;40500;51.084;16.958;2023-07-13T03:51:02;8.70;;;4.90;;
54599;SDS011;40500;51.084;16.958;2023-07-13T03:53:34;7.40;;;4.50;;
54599;SDS011;40500;51.084;16.958;2023-07-13T03:56:27;5.90;;;4.60;;
54599;SDS011;40500;51.084;16.958;2023-07-13T03:59:21;5.90;;;4.40;;
54599;SDS011;40500;51.084;16.958;2023-07-13T04:02:07;6.20;;;4.80;;
54599;SDS011;40500;51.084;16.958;2023-07-13T04:05:01;6.50;;;4.30;;
54599;SDS011;40500;51.084;16.958;2023-07-13T04:07:56;4.90;;;3.90;;
54599;SDS011;40500;51.084;16.958;2023-07-13T04:10:48;8.10;;;4.40;;
54599;SDS011;40500;51.084;16.958;2023-07-13T04:13:42;7.90;;;4.40;;
54599;SDS011;40500;51.084;16.958;2023-07-13T04:16:35;6.90;;;4.50;;
54599;SDS011;40500;51.084;16.958;2023-07-13T04:19:10;6.40;;;4.20;;
54599;SDS011;40500;51.084;16.958;2023-07-13T04:22:05;5.70;;;4.50;;
54599;SDS011;40500;51.084;16.958;2023-07-13T04:24:58;4.90;;;3.60;;
54599;SDS011;40500;51.084;16.958;2023-07-13T04:27:50;7.50;;;3.30;;
54599;SDS011;40500;51.084;16.958;2023-07-13T04:30:42;3.10;;;2.70;;
54599;SDS011;40500;51.084;16.958;2023-07-13T04:33:36;5.50;;;3.30;;
54599;SDS011;40500;51.084;16.958;2023-07-13T04:36:27;3.60;;;2.60;;
54599;SDS011;40500;51.084;16.958;2023-07-13T04:39:21;5.60;;;2.70;;
54599;SDS011;40500;51.084;16.958;2023-07-13T04:42:15;5.70;;;2.90;;
54599;SDS011;40500;51.084;16.958;2023-07-13T04:44:50;9.30;;;3.40;;
54599;SDS011;40500;51.084;16.958;2023-07-13T04:47:44;5.50;;;2.90;;
54599;SDS011;40500;51.084;16.958;2023-07-13T04:50:36;5.80;;;2.60;;
54599;SDS011;40500;51.084;16.958;2023-07-13T04:53:28;5.20;;;2.70;;
54599;SDS011;40500;51.084;16.958;2023-07-13T04:56:02;8.10;;;3.00;;
54599;SDS011;40500;51.084;16.958;2023-07-13T04:59:01;5.80;;;3.00;;
54599;SDS011;40500;51.084;16.958;2023-07-13T05:01:54;4.90;;;2.70;;
54599;SDS011;40500;51.084;16.958;2023-07-13T05:04:33;4.50;;;2.30;;
54599;SDS011;40500;51.084;16.958;2023-07-13T05:07:24;5.00;;;2.10;;
54599;SDS011;40500;51.084;16.958;2023-07-13T05:10:18;5.80;;;2.60;;
54599;SDS011;40500;51.084;16.958;2023-07-13T05:13:14;5.50;;;2.60;;
54599;SDS011;40500;51.084;16.958;2023-07-13T05:16:18;4.70;;;2.20;;
54599;SDS011;40500;51.084;16.958;2023-07-13T05:19:17;7.40;;;2.20;;
54599;SDS011;40500;51.084;16.958;2023-07-13T05:22:08;6.90;;;2.60;;
54599;SDS011;40500;51.084;16.958;2023-07-13T05:25:06;2.80;;;2.50;;
54599;SDS011;40500;51.084;16.958;2023-07-13T05:28:00;3.50;;;2.60;;
54599;SDS011;40500;51.084;16.958;2023-07-13T05:30:53;4.20;;;2.50;;
54599;SDS011;40500;51.084;16.958;2023-07-13T05:33:53;2.50;;;2.30;;
54599;SDS011;40500;51.084;16.958;2023-07-13T05:36:47;3.30;;;2.40;;
54599;SDS011;40500;51.084;16.958;2023-07-13T05:39:43;5.30;;;2.70;;
54599;SDS011;40500;51.084;16.958;2023-07-13T05:42:38;2.70;;;2.40;;
54599;SDS011;40500;51.084;16.958;2023-07-13T05:45:42;3.00;;;2.70;;
54599;SDS011;40500;51.084;16.958;2023-07-13T05:48:16;4.80;;;2.30;;
54599;SDS011;40500;51.084;16.958;2023-07-13T05:51:11;3.90;;;3.00;;
54599;SDS011;40500;51.084;16.958;2023-07-13T05:54:06;5.20;;;2.60;;
54599;SDS011;40500;51.084;16.958;2023-07-13T05:56:58;4.00;;;2.00;;
54599;SDS011;40500;51.084;16.958;2023-07-13T05:59:51;2.60;;;2.40;;
54599;SDS011;40500;51.084;16.958;2023-07-13T06:02:50;4.60;;;2.50;;
54599;SDS011;40500;51.084;16.958;2023-07-13T06:05:43;2.10;;;1.90;;
54599;SDS011;40500;51.084;16.958;2023-07-13T06:08:35;2.40;;;2.20;;
54599;SDS011;40500;51.084;16.958;2023-07-13T06:11:29;4.10;;;2.40;;
54599;SDS011;40500;51.084;16.958;2023-07-13T06:14:22;3.90;;;2.40;;
54599;SDS011;40500;51.084;16.958;2023-07-13T06:17:13;5.60;;;2.50;;
54599;SDS011;40500;51.084;16.958;2023-07-13T06:20:08;2.80;;;2.50;;
54599;SDS011;40500;51.084;16.958;2023-07-13T06:22:50;2.60;;;2.40;;
54599;SDS011;40500;51.084;16.958;2023-07-13T06:25:51;5.20;;;2.50;;
54599;SDS011;40500;51.084;16.958;2023-07-13T06:28:43;3.00;;;2.70;;
54599;SDS011;40500;51.084;16.958;2023-07-13T06:31:35;2.90;;;2.30;;
54599;SDS011;40500;51.084;16.958;2023-07-13T06:34:31;4.80;;;2.50;;
54599;SDS011;40500;51.084;16.958;2023-07-13T06:37:23;2.90;;;2.50;;
54599;SDS011;40500;51.084;16.958;2023-07-13T06:40:16;3.60;;;3.10;;
54599;SDS011;40500;51.084;16.958;2023-07-13T06:43:15;3.60;;;2.60;;
54599;SDS011;40500;51.084;16.958;2023-07-13T06:46:13;3.70;;;2.20;;
54599;SDS011;40500;51.084;16.958;2023-07-13T06:49:07;3.10;;;2.50;;
54599;SDS011;40500;51.084;16.958;2023-07-13T06:52:02;3.70;;;2.80;;
54599;SDS011;40500;51.084;16.958;2023-07-13T06:55:06;5.50;;;2.90;;
54599;SDS011;40500;51.084;16.958;2023-07-13T06:57:39;3.60;;;2.90;;
54599;SDS011;40500;51.084;16.958;2023-07-13T07:00:10;3.80;;;3.10;;
54599;SDS011;40500;51.084;16.958;2023-07-13T07:02:42;9.80;;;3.10;;
54599;SDS011;40500;51.084;16.958;2023-07-13T07:05:13;4.30;;;2.70;;
54599;SDS011;40500;51.084;16.958;2023-07-13T07:07:47;3.20;;;2.70;;
54599;SDS011;40500;51.084;16.958;2023-07-13T07:10:20;3.30;;;2.80;;
54599;SDS011;40500;51.084;16.958;2023-07-13T07:12:58;7.60;;;3.70;;
54599;SDS011;40500;51.084;16.958;2023-07-13T07:15:28;4.10;;;3.20;;
54599;SDS011;40500;51.084;16.958;2023-07-13T07:17:59;5.00;;;3.50;;
54599;SDS011;40500;51.084;16.958;2023-07-13T07:20:30;4.50;;;3.40;;
54599;SDS011;40500;51.084;16.958;2023-07-13T07:23:12;4.20;;;3.30;;
54599;SDS011;40500;51.084;16.958;2023-07-13T07:25:44;6.90;;;3.40;;
54599;SDS011;40500;51.084;16.958;2023-07-13T07:28:15;6.00;;;3.30;;
54599;SDS011;40500;51.084;16.958;2023-07-13T07:30:52;6.10;;;3.50;;
54599;SDS011;40500;51.084;16.958;2023-07-13T07:33:43;4.60;;;3.30;;
54599;SDS011;40500;51.084;16.958;2023-07-13T07:36:13;5.10;;;3.60;;
54599;SDS011;40500;51.084;16.958;2023-07-13T07:38:46;4.20;;;3.20;;
54599;SDS011;40500;51.084;16.958;2023-07-13T07:41:17;7.70;;;3.60;;
54599;SDS011;40500;51.084;16.958;2023-07-13T07:43:52;5.10;;;3.40;;
54599;SDS011;40500;51.084;16.958;2023-07-13T07:46:27;6.10;;;3.40;;
54599;SDS011;40500;51.084;16.958;2023-07-13T07:49:13;7.20;;;3.50;;
54599;SDS011;40500;51.084;16.958;2023-07-13T07:51:44;6.10;;;3.70;;
54599;SDS011;40500;51.084;16.958;2023-07-13T07:54:16;4.70;;;3.30;;
54599;SDS011;40500;51.084;16.958;2023-07-13T07:57:07;3.80;;;3.50;;
54599;SDS011;40500;51.084;16.958;2023-07-13T07:59:41;5.70;;;3.40;;
54599;SDS011;40500;51.084;16.958;2023-07-13T08:02:14;3.70;;;3.30;;
54599;SDS011;40500;51.084;16.958;2023-07-13T08:04:48;4.50;;;3.20;;
54599;SDS011;40500;51.084;16.958;2023-07-13T08:07:21;6.90;;;3.40;;
54599;SDS011;40500;51.084;16.958;2023-07-13T08:10:02;5.40;;;3.20;;
54599;SDS011;40500;51.084;16.958;2023-07-13T08:12:38;4.90;;;3.60;;
54599;SDS011;40500;51.084;16.958;2023-07-13T08:15:31;4.20;;;3.00;;
54599;SDS011;40500;51.084;16.958;2023-07-13T08:18:02;2.80;;;2.50;;
54599;SDS011;40500;51.084;16.958;2023-07-13T08:20:33;4.20;;;2.90;;
54599;SDS011;40500;51.084;16.958;2023-07-13T08:23:27;5.00;;;2.60;;
54599;SDS011;40500;51.084;16.958;2023-07-13T08:26:44;3.00;;;2.70;;
54599;SDS011;40500;51.084;16.958;2023-07-13T08:29:40;5.00;;;3.80;;
54599;SDS011;40500;51.084;16.958;2023-07-13T08:32:35;6.70;;;4.30;;
54599;SDS011;40500;51.084;16.958;2023-07-13T08:35:47;3.10;;;2.50;;
54599;SDS011;40500;51.084;16.958;2023-07-13T08:38:39;7.40;;;4.10;;
54599;SDS011;40500;51.084;16.958;2023-07-13T08:41:18;6.60;;;3.40;;
54599;SDS011;40500;51.084;16.958;2023-07-13T08:44:02;8.90;;;3.20;;
54599;SDS011;40500;51.084;16.958;2023-07-13T08:46:58;3.30;;;3.00;;
54599;SDS011;40500;51.084;16.958;2023-07-13T08:49:32;5.10;;;3.00;;
54599;SDS011;40500;51.084;16.958;2023-07-13T08:52:31;3.80;;;3.00;;
54599;SDS011;40500;51.084;16.958;2023-07-13T08:55:15;4.10;;;2.70;;
54599;SDS011;40500;51.084;16.958;2023-07-13T08:58:16;4.40;;;2.70;;
54599;SDS011;40500;51.084;16.958;2023-07-13T09:01:14;2.40;;;2.20;;
54599;SDS011;40500;51.084;16.958;2023-07-13T09:03:57;3.50;;;2.30;;
54599;SDS011;40500;51.084;16.958;2023-07-13T09:06:37;2.80;;;2.20;;
54599;SDS011;40500;51.084;16.958;2023-07-13T09:09:23;2.70;;;2.50;;
54599;SDS011;40500;51.084;16.958;2023-07-13T09:12:08;3.10;;;2.60;;
54599;SDS011;40500;51.084;16.958;2023-07-13T09:14:48;3.40;;;2.40;;
54599;SDS011;40500;51.084;16.958;2023-07-13T09:17:24;3.30;;;2.10;;
54599;SDS011;40500;51.084;16.958;2023-07-13T09:20:00;5.20;;;2.20;;
54599;SDS011;40500;51.084;16.958;2023-07-13T09:22:38;2.20;;;2.00;;
54599;SDS011;40500;51.084;16.958;2023-07-13T09:25:23;4.50;;;2.00;;
54599;SDS011;40500;51.084;16.958;2023-07-13T09:27:58;5.00;;;2.20;;
54599;SDS011;40500;51.084;16.958;2023-07-13T09:30:33;4.60;;;1.90;;
54599;SDS011;40500;51.084;16.958;2023-07-13T09:33:08;3.50;;;2.10;;
54599;SDS011;40500;51.084;16.958;2023-07-13T09:35:41;3.00;;;1.90;;
54599;SDS011;40500;51.084;16.958;2023-07-13T09:38:15;4.90;;;2.30;;
54599;SDS011;40500;51.084;16.958;2023-07-13T09:40:56;2.20;;;1.90;;
54599;SDS011;40500;51.084;16.958;2023-07-13T09:43:38;3.10;;;2.10;;
54599;SDS011;40500;51.084;16.958;2023-07-13T09:46:28;4.40;;;2.30;;
54599;SDS011;40500;51.084;16.958;2023-07-13T09:48:59;4.20;;;1.90;;
54599;SDS011;40500;51.084;16.958;2023-07-13T09:51:30;1.80;;;1.60;;
54599;SDS011;40500;51.084;16.958;2023-07-13T09:54:20;3.20;;;2.10;;
54599;SDS011;40500;51.084;16.958;2023-07-13T09:59:40;3.70;;;2.10;;
54599;SDS011;40500;51.084;16.958;2023-07-13T10:02:25;5.40;;;2.20;;
54599;SDS011;40500;51.084;16.958;2023-07-13T10:05:11;2.00;;;1.80;;
54599;SDS011;40500;51.084;16.958;2023-07-13T10:07:52;1.80;;;1.60;;
54599;SDS011;40500;51.084;16.958;2023-07-13T10:10:26;3.00;;;1.50;;
54599;SDS011;40500;51.084;16.958;2023-07-13T10:13:08;1.60;;;1.50;;
54599;SDS011;40500;51.084;16.958;2023-07-13T10:16:06;1.60;;;1.50;;
54599;SDS011;40500;51.084;16.958;2023-07-13T10:18:39;3.40;;;1.30;;
54599;SDS011;40500;51.084;16.958;2023-07-13T10:21:18;1.60;;;1.50;;
54599;SDS011;40500;51.084;16.958;2023-07-13T10:24:04;2.00;;;1.00;;
54599;SDS011;40500;51.084;16.958;2023-07-13T10:26:52;2.50;;;1.30;;
54599;SDS011;40500;51.084;16.958;2023-07-13T10:29:28;1.60;;;1.20;;
54599;SDS011;40500;51.084;16.958;2023-07-13T10:32:07;3.70;;;1.30;;
54599;SDS011;40500;51.084;16.958;2023-07-13T10:34:46;1.40;;;1.20;;
54599;SDS011;40500;51.084;16.958;2023-07-13T10:37:26;2.00;;;1.00;;
54599;SDS011;40500;51.084;16.958;2023-07-13T10:40:13;2.20;;;1.20;;
54599;SDS011;40500;51.084;16.958;2023-07-13T10:43:17;2.40;;;1.30;;
54599;SDS011;40500;51.084;16.958;2023-07-13T10:46:04;5.10;;;1.20;;
54599;SDS011;40500;51.084;16.958;2023-07-13T10:48:38;2.90;;;1.30;;
54599;SDS011;40500;51.084;16.958;2023-07-13T10:51:13;2.00;;;1.30;;
54599;SDS011;40500;51.084;16.958;2023-07-13T10:53:48;1.30;;;1.20;;
54599;SDS011;40500;51.084;16.958;2023-07-13T10:56:48;1.70;;;1.20;;
54599;SDS011;40500;51.084;16.958;2023-07-13T10:59:27;2.50;;;1.30;;
54599;SDS011;40500;51.084;16.958;2023-07-13T11:02:09;3.00;;;1.70;;
54599;SDS011;40500;51.084;16.958;2023-07-13T11:04:47;2.50;;;1.40;;
54599;SDS011;40500;51.084;16.958;2023-07-13T11:07:22;1.30;;;1.20;;
54599;SDS011;40500;51.084;16.958;2023-07-13T11:09:56;2.40;;;1.30;;
54599;SDS011;40500;51.084;16.958;2023-07-13T11:15:30;2.20;;;1.40;;
54599;SDS011;40500;51.084;16.958;2023-07-13T11:18:20;3.30;;;1.60;;
54599;SDS011;40500;51.084;16.958;2023-07-13T11:20:53;3.40;;;1.50;;
54599;SDS011;40500;51.084;16.958;2023-07-13T11:24:02;3.20;;;1.50;;
54599;SDS011;40500;51.084;16.958;2023-07-13T11:26:51;2.00;;;1.40;;
54599;SDS011;40500;51.084;16.958;2023-07-13T11:29:25;1.90;;;1.20;;
54599;SDS011;40500;51.084;16.958;2023-07-13T11:32:10;2.50;;;1.60;;
54599;SDS011;40500;51.084;16.958;2023-07-13T11:34:56;2.80;;;1.30;;
54599;SDS011;40500;51.084;16.958;2023-07-13T11:37:29;1.80;;;1.40;;
54599;SDS011;40500;51.084;16.958;2023-07-13T11:40:00;1.20;;;1.10;;
54599;SDS011;40500;51.084;16.958;2023-07-13T11:42:34;1.90;;;1.20;;
54599;SDS011;40500;51.084;16.958;2023-07-13T11:45:14;1.40;;;1.30;;
54599;SDS011;40500;51.084;16.958;2023-07-13T11:48:20;1.60;;;1.30;;
54599;SDS011;40500;51.084;16.958;2023-07-13T11:50:58;2.60;;;1.30;;
54599;SDS011;40500;51.084;16.958;2023-07-13T11:53:34;1.70;;;1.20;;
54599;SDS011;40500;51.084;16.958;2023-07-13T11:56:12;3.00;;;1.10;;
54599;SDS011;40500;51.084;16.958;2023-07-13T11:58:43;1.80;;;1.10;;
54599;SDS011;40500;51.084;16.958;2023-07-13T12:01:18;1.00;;;0.90;;
54599;SDS011;40500;51.084;16.958;2023-07-13T12:03:52;5.60;;;1.20;;
54599;SDS011;40500;51.084;16.958;2023-07-13T12:06:27;3.50;;;1.10;;
54599;SDS011;40500;51.084;16.958;2023-07-13T12:09:08;0.90;;;0.90;;
54599;SDS011;40500;51.084;16.958;2023-07-13T12:11:43;1.30;;;1.00;;
54599;SDS011;40500;51.084;16.958;2023-07-13T12:14:15;1.90;;;1.10;;
54599;SDS011;40500;51.084;16.958;2023-07-13T12:16:46;2.70;;;0.90;;
54599;SDS011;40500;51.084;16.958;2023-07-13T12:19:18;4.60;;;1.00;;
54599;SDS011;40500;51.084;16.958;2023-07-13T12:21:52;2.40;;;0.80;;
54599;SDS011;40500;51.084;16.958;2023-07-13T12:24:25;2.20;;;0.80;;
54599;SDS011;40500;51.084;16.958;2023-07-13T12:27:00;1.10;;;1.00;;
54599;SDS011;40500;51.084;16.958;2023-07-13T12:29:33;1.40;;;1.00;;
54599;SDS011;40500;51.084;16.958;2023-07-13T12:32:07;1.40;;;0.90;;
54599;SDS011;40500;51.084;16.958;2023-07-13T12:34:56;3.60;;;1.00;;
54599;SDS011;40500;51.084;16.958;2023-07-13T12:37:46;1.10;;;0.90;;
54599;SDS011;40500;51.084;16.958;2023-07-13T12:40:19;1.00;;;0.90;;
54599;SDS011;40500;51.084;16.958;2023-07-13T12:42:54;5.00;;;1.10;;
54599;SDS011;40500;51.084;16.958;2023-07-13T12:45:27;1.50;;;1.00;;
54599;SDS011;40500;51.084;16.958;2023-07-13T12:48:03;2.00;;;1.20;;
54599;SDS011;40500;51.084;16.958;2023-07-13T12:51:34;3.10;;;0.80;;
54599;SDS011;40500;51.084;16.958;2023-07-13T12:54:16;1.10;;;1.00;;
54599;SDS011;40500;51.084;16.958;2023-07-13T12:56:58;1.30;;;0.90;;
54599;SDS011;40500;51.084;16.958;2023-07-13T12:59:33;1.80;;;1.10;;
54599;SDS011;40500;51.084;16.958;2023-07-13T13:02:19;3.00;;;1.00;;
54599;SDS011;40500;51.084;16.958;2023-07-13T13:04:59;3.50;;;1.10;;
54599;SDS011;40500;51.084;16.958;2023-07-13T13:07:32;1.50;;;1.00;;
54599;SDS011;40500;51.084;16.958;2023-07-13T13:10:10;2.60;;;1.10;;
54599;SDS011;40500;51.084;16.958;2023-07-13T13:12:47;2.70;;;1.00;;
54599;SDS011;40500;51.084;16.958;2023-07-13T13:15:20;4.00;;;1.00;;
54599;SDS011;40500;51.084;16.958;2023-07-13T13:17:52;1.80;;;0.90;;
54599;SDS011;40500;51.084;16.958;2023-07-13T13:20:32;0.90;;;0.80;;
54599;SDS011;40500;51.084;16.958;2023-07-13T13:23:12;2.50;;;0.80;;
54599;SDS011;40500;51.084;16.958;2023-07-13T13:25:49;2.20;;;0.70;;
54599;SDS011;40500;51.084;16.958;2023-07-13T13:28:39;0.70;;;0.70;;
54599;SDS011;40500;51.084;16.958;2023-07-13T13:31:14;1.80;;;1.00;;
54599;SDS011;40500;51.084;16.958;2023-07-13T13:34:06;1.60;;;0.90;;
54599;SDS011;40500;51.084;16.958;2023-07-13T13:36:47;1.40;;;0.80;;
54599;SDS011;40500;51.084;16.958;2023-07-13T13:39:28;2.60;;;1.30;;
54599;SDS011;40500;51.084;16.958;2023-07-13T13:42:08;2.80;;;1.10;;
54599;SDS011;40500;51.084;16.958;2023-07-13T13:44:40;2.40;;;0.90;;
54599;SDS011;40500;51.084;16.958;2023-07-13T13:47:30;1.00;;;0.90;;
54599;SDS011;40500;51.084;16.958;2023-07-13T13:50:24;2.10;;;0.80;;
54599;SDS011;40500;51.084;16.958;2023-07-13T13:52:59;3.30;;;1.00;;
54599;SDS011;40500;51.084;16.958;2023-07-13T13:55:32;0.90;;;0.90;;
54599;SDS011;40500;51.084;16.958;2023-07-13T13:58:03;2.30;;;0.80;;
54599;SDS011;40500;51.084;16.958;2023-07-13T14:00:37;2.40;;;0.90;;
54599;SDS011;40500;51.084;16.958;2023-07-13T14:03:22;1.10;;;0.70;;
54599;SDS011;40500;51.084;16.958;2023-07-13T14:06:08;1.00;;;0.80;;
54599;SDS011;40500;51.084;16.958;2023-07-13T14:08:45;1.10;;;0.70;;
54599;SDS011;40500;51.084;16.958;2023-07-13T14:11:22;1.70;;;0.60;;
54599;SDS011;40500;51.084;16.958;2023-07-13T14:14:00;1.10;;;0.70;;
54599;SDS011;40500;51.084;16.958;2023-07-13T14:16:36;1.70;;;0.80;;
54599;SDS011;40500;51.084;16.958;2023-07-13T14:19:20;1.40;;;0.80;;
54599;SDS011;40500;51.084;16.958;2023-07-13T14:21:58;1.50;;;0.60;;
54599;SDS011;40500;51.084;16.958;2023-07-13T14:24:48;2.50;;;0.80;;
54599;SDS011;40500;51.084;16.958;2023-07-13T14:27:53;2.30;;;0.80;;
54599;SDS011;40500;51.084;16.958;2023-07-13T14:30:42;0.90;;;0.80;;
54599;SDS011;40500;51.084;16.958;2023-07-13T14:33:39;3.60;;;1.10;;
54599;SDS011;40500;51.084;16.958;2023-07-13T14:36:23;2.00;;;0.80;;
54599;SDS011;40500;51.084;16.958;2023-07-13T14:39:12;1.00;;;0.70;;
54599;SDS011;40500;51.084;16.958;2023-07-13T14:41:51;2.80;;;0.70;;
54599;SDS011;40500;51.084;16.958;2023-07-13T14:44:27;2.00;;;0.70;;
54599;SDS011;40500;51.084;16.958;2023-07-13T14:47:06;0.80;;;0.60;;
54599;SDS011;40500;51.084;16.958;2023-07-13T14:49:40;2.40;;;0.60;;
54599;SDS011;40500;51.084;16.958;2023-07-13T14:52:18;2.30;;;1.00;;
54599;SDS011;40500;51.084;16.958;2023-07-13T14:54:58;1.10;;;0.70;;
54599;SDS011;40500;51.084;16.958;2023-07-13T14:57:32;1.70;;;0.70;;
54599;SDS011;40500;51.084;16.958;2023-07-13T15:00:15;0.80;;;0.80;;
54599;SDS011;40500;51.084;16.958;2023-07-13T15:02:52;1.70;;;0.70;;
54599;SDS011;40500;51.084;16.958;2023-07-13T15:05:31;1.40;;;0.60;;
54599;SDS011;40500;51.084;16.958;2023-07-13T15:08:04;1.30;;;0.70;;
54599;SDS011;40500;51.084;16.958;2023-07-13T15:10:40;0.70;;;0.60;;
54599;SDS011;40500;51.084;16.958;2023-07-13T15:13:15;1.10;;;0.60;;
54599;SDS011;40500;51.084;16.958;2023-07-13T15:16:18;0.70;;;0.40;;
54599;SDS011;40500;51.084;16.958;2023-07-13T15:19:02;0.70;;;0.50;;
54599;SDS011;40500;51.084;16.958;2023-07-13T15:21:35;3.00;;;0.90;;
54599;SDS011;40500;51.084;16.958;2023-07-13T15:24:24;0.50;;;0.50;;
54599;SDS011;40500;51.084;16.958;2023-07-13T15:27:07;1.90;;;0.60;;
54599;SDS011;40500;51.084;16.958;2023-07-13T15:29:55;2.30;;;0.70;;
54599;SDS011;40500;51.084;16.958;2023-07-13T15:32:42;1.00;;;0.70;;
54599;SDS011;40500;51.084;16.958;2023-07-13T15:35:25;1.30;;;0.60;;
54599;SDS011;40500;51.084;16.958;2023-07-13T15:38:04;3.40;;;0.40;;
54599;SDS011;40500;51.084;16.958;2023-07-13T15:40:48;1.20;;;0.70;;
54599;SDS011;40500;51.084;16.958;2023-07-13T15:43:33;1.30;;;0.60;;
54599;SDS011;40500;51.084;16.958;2023-07-13T15:46:36;0.70;;;0.60;;
54599;SDS011;40500;51.084;16.958;2023-07-13T15:49:20;1.00;;;0.50;;
54599;SDS011;40500;51.084;16.958;2023-07-13T15:51:55;2.60;;;0.70;;
54599;SDS011;40500;51.084;16.958;2023-07-13T15:54:55;2.50;;;0.70;;
54599;SDS011;40500;51.084;16.958;2023-07-13T15:57:58;1.30;;;0.70;;
54599;SDS011;40500;51.084;16.958;2023-07-13T16:00:48;1.30;;;0.70;;
54599;SDS011;40500;51.084;16.958;2023-07-13T16:03:29;0.80;;;0.70;;
54599;SDS011;40500;51.084;16.958;2023-07-13T16:06:02;3.20;;;0.60;;
54599;SDS011;40500;51.084;16.958;2023-07-13T16:09:11;1.60;;;0.70;;
54599;SDS011;40500;51.084;16.958;2023-07-13T16:12:13;2.20;;;0.60;;
54599;SDS011;40500;51.084;16.958;2023-07-13T16:15:00;2.20;;;0.90;;
54599;SDS011;40500;51.084;16.958;2023-07-13T16:17:33;1.50;;;0.90;;
54599;SDS011;40500;51.084;16.958;2023-07-13T16:20:17;2.10;;;0.70;;
54599;SDS011;40500;51.084;16.958;2023-07-13T16:23:00;2.20;;;0.50;;
54599;SDS011;40500;51.084;16.958;2023-07-13T16:25:58;1.40;;;0.80;;
54599;SDS011;40500;51.084;16.958;2023-07-13T16:28:46;0.80;;;0.70;;
54599;SDS011;40500;51.084;16.958;2023-07-13T16:31:43;0.90;;;0.80;;
54599;SDS011;40500;51.084;16.958;2023-07-13T16:34:31;1.90;;;0.80;;